Kansas, OK (74347)

8:35 PM CDT en Octubre 22, 2014 (GMT -0500)
Angel Creek Ranch | Change Station
CLOSE
Current Station
Estación meteorológica personal
Location: Tahlequah, OK
Altura: 853 ft
Estaciones meteorológicas cercanas

Alt 853 ft 36.11 °N, 94.99 °W | Updated 22 seconds ago

Despejado
Despejado
60.1 ° F
Sensación térmica 60.1 ° F
N
0.0
Viento Variable Viento desde SSO
Gusts 0.0 mph

Hoy
Alta -- | Baja -- ° F
--% Posibilidad de precipitaciones
Ayer
Alta -- | Baja -- ° F
Precip. -- pul
7:32 AM 6:34 PM
Creciente menguante, 1% visible
Presión 30.16 pul
Visibilidad 10.0 Millas
Nubes Despejado
Punto de rocío 56 ° F
Humedad 85%
Precipitaciones 0.00 pul
Espesor de la nieve No disponible.
UV 0.0 de una escala de 12
Polen 4.20 de una escala de 12
Calidad del aire No disponible.
Flu Activity No Activity
METAR KSLG 230115Z AUTO 16006KT 10SM CLR 16/09 A3016 RMK AO1

More Conditions Fewer Conditions

Presión 30.16 pul
Visibilidad 10.0 Millas
Nubes Despejado
Punto de rocío 56 ° F
Humedad 85%
Precipitaciones 0.00 pul
Espesor de la nieve No disponible.
UV 0.0 de una escala de 12
Polen 4.20 de una escala de 12
Calidad del aire No disponible.
Flu Activity No Activity
METAR KSLG 230115Z AUTO 16006KT 10SM CLR 16/09 A3016 RMK AO1

More Conditions Fewer Conditions

10-Day Weather Forecast

Almanac

Astronomía

Oct. 22, 2014 Salida Puesta
Hora real 7:32 AM CDT 6:34 PM CDT
Crepúsculo civil 7:06 AM CDT 7:00 PM CDT
Crepúsculo náutico 6:36 AM CDT 7:30 PM CDT
Crepúsculo astronómico 6:06 AM CDT 8:00 PM CDT
Luna 6:17 AM CDT (10/22) 5:59 PM CDT (10/22)
Horas de luz 11h 53m
Horas de luz
11h 01m
Tomorrow will be 2m 8s shorter.
Creciente menguante, 1% of the Moon is Illuminated
Hoy
Creciente menguante
Oct 23
Nueva
Oct 30
Cuarto creciente
Nov 6
Luna llena
Nov 14
Cuarto menguante

Extremos de hoy

Máximos del estado Bajos del estado

Community

WunderPhotos

Upload Photos

1,764,106 ¡fotos cargadas!

Nearby

Grosos de nieve

Estación Profundido Altura
No tenemos constancia de nieve nueva.

Actividad de terremotos

Ciudad Distance Mag. Tiempo y dato
Boley, Oklahoma 112 Millas 3.5 3:34 PM CDT
2014-10-20
Cushing, Oklahoma 111 Millas 2.8 11:41 AM CDT
2014-10-20
Cushing, Oklahoma 111 Millas 2.5 10:20 AM CDT
2014-10-20
Magnitud mínima muestra es 2,5.

Temperaturas de aguas costeras

Lugar Temperatura
Sin partes meteorológicos de las estaciones

Estaciones meteorológicas cercanas